createdAt,value
2022-12-07T07:11:21.639Z,15.55
2022-12-07T07:13:55.144Z,19.08
2022-12-07T07:16:27.792Z,17.70
2022-12-07T07:19:00.815Z,11.48
2022-12-07T07:21:33.396Z,17.85
2022-12-07T07:24:06.679Z,9.90
2022-12-07T07:26:40.382Z,19.13
2022-12-07T07:29:13.941Z,17.25
2022-12-07T07:31:46.742Z,8.05
2022-12-07T07:34:20.195Z,6.80
2022-12-07T07:36:53.004Z,9.70
2022-12-07T07:39:27.493Z,15.32
2022-12-07T07:42:00.020Z,6.75
2022-12-07T07:44:35.503Z,5.70
2022-12-07T07:47:08.273Z,7.95
2022-12-07T07:49:47.559Z,8.57
2022-12-07T07:52:20.723Z,9.82
2022-12-07T07:54:54.217Z,17.35
2022-12-07T07:57:26.962Z,17.02
2022-12-07T08:00:00.174Z,9.00
2022-12-07T08:02:32.979Z,12.65
2022-12-07T08:05:06.548Z,7.38
2022-12-07T08:07:39.369Z,7.72
2022-12-07T08:10:12.962Z,9.77
2022-12-07T08:13:03.847Z,8.48
2022-12-07T08:15:37.626Z,3.47
2022-12-07T08:18:10.489Z,4.75
2022-12-07T08:20:43.479Z,4.95
2022-12-07T08:23:16.507Z,6.32
2022-12-07T08:25:49.614Z,4.03
2022-12-07T08:28:22.431Z,3.40
2022-12-07T08:31:00.184Z,5.32
2022-12-07T08:33:33.286Z,8.43
2022-12-07T08:36:07.508Z,19.08
2022-12-07T08:38:44.943Z,9.55
2022-12-07T08:41:25.428Z,24.48
2022-12-07T08:43:57.978Z,6.45
2022-12-07T08:46:39.074Z,7.75
2022-12-07T08:49:16.646Z,8.90
2022-12-07T08:51:49.608Z,4.80
2022-12-07T08:54:22.368Z,4.05
2022-12-07T08:56:59.409Z,9.50
2022-12-07T08:59:33.674Z,11.73
2022-12-07T09:02:07.361Z,6.00
2022-12-07T09:04:39.991Z,7.32
2022-12-07T09:07:13.091Z,4.90
2022-12-07T09:09:46.250Z,4.63
2022-12-07T09:12:19.102Z,7.93
2022-12-07T09:14:51.667Z,4.93
2022-12-07T09:17:24.634Z,1.88
2022-12-07T09:19:57.392Z,3.20
2022-12-07T09:22:31.563Z,4.28
2022-12-07T09:25:04.891Z,3.45
2022-12-07T09:27:37.966Z,4.32
2022-12-07T09:30:10.588Z,2.70
2022-12-07T09:32:43.753Z,6.25
2022-12-07T09:35:16.255Z,5.50
2022-12-07T09:37:49.179Z,13.50
2022-12-07T09:40:23.060Z,5.85
2022-12-07T09:42:56.597Z,5.82
2022-12-07T09:45:35.445Z,8.13
2022-12-07T09:48:16.659Z,15.27
2022-12-07T09:50:49.640Z,10.43
2022-12-07T09:53:25.795Z,12.20
2022-12-07T09:55:58.359Z,5.78
2022-12-07T09:58:32.018Z,6.03
2022-12-07T10:01:07.321Z,7.65
2022-12-07T10:03:42.052Z,5.75
2022-12-07T10:06:15.265Z,10.25
2022-12-07T10:08:48.191Z,9.48
2022-12-07T10:11:20.912Z,13.82
2022-12-07T10:13:55.236Z,7.90
2022-12-07T10:16:38.654Z,9.55
2022-12-07T10:19:31.906Z,8.95
2022-12-07T10:22:12.433Z,9.48
2022-12-07T10:24:47.994Z,9.23
2022-12-07T10:27:23.401Z,6.03
2022-12-07T10:29:56.514Z,10.35
2022-12-07T10:32:32.470Z,8.07
2022-12-07T10:35:25.314Z,3.38
2022-12-07T10:37:59.437Z,8.93
2022-12-07T10:40:38.706Z,5.90
2022-12-07T10:43:14.950Z,3.85
2022-12-07T10:46:14.777Z,4.55
2022-12-07T10:48:50.750Z,5.53
2022-12-07T10:51:39.449Z,3.53
2022-12-07T10:54:19.789Z,3.85
2022-12-07T10:56:55.831Z,4.25
2022-12-07T10:59:43.496Z,4.72
2022-12-07T11:02:22.640Z,6.00
2022-12-07T11:05:18.309Z,6.97
2022-12-07T11:08:00.961Z,6.97
2022-12-07T11:10:50.826Z,4.43
2022-12-07T11:13:43.961Z,5.80
2022-12-07T11:16:35.851Z,5.80
2022-12-07T11:19:11.828Z,3.00
2022-12-07T11:21:57.202Z,4.00
2022-12-07T11:24:36.218Z,5.18
2022-12-07T11:27:14.848Z,9.95
2022-12-07T11:30:01.320Z,3.47
2022-12-07T11:32:37.731Z,6.03
2022-12-07T11:35:16.958Z,4.10
2022-12-07T11:37:51.174Z,4.10
2022-12-07T11:40:37.344Z,4.03
2022-12-07T11:43:16.771Z,1.85
2022-12-07T11:46:09.876Z,3.90
2022-12-07T11:48:45.364Z,2.85
2022-12-07T11:51:19.785Z,5.78
2022-12-07T11:54:13.645Z,2.45
2022-12-07T11:56:48.758Z,7.45
2022-12-07T11:59:25.779Z,5.88
2022-12-07T12:02:02.168Z,5.43
2022-12-07T12:04:51.139Z,5.78
2022-12-07T12:10:21.276Z,4.30
2022-12-07T12:15:54.262Z,5.53
2022-12-07T12:18:39.531Z,7.47
2022-12-07T12:21:13.420Z,19.95
2022-12-07T12:23:52.324Z,10.75
2022-12-07T12:26:27.244Z,3.25
2022-12-07T12:29:05.076Z,2.65
2022-12-07T12:31:42.653Z,3.15
2022-12-07T12:34:32.140Z,12.13
2022-12-07T12:37:14.923Z,3.58
2022-12-07T12:40:07.741Z,4.90
2022-12-07T12:42:50.447Z,2.85
2022-12-07T12:45:23.399Z,5.00
2022-12-07T12:48:00.148Z,3.95
2022-12-07T12:50:39.237Z,6.22
2022-12-07T12:53:17.390Z,5.15
2022-12-07T12:56:10.583Z,4.80
2022-12-07T12:58:45.277Z,3.45
2022-12-07T13:01:30.382Z,4.47
2022-12-07T13:04:03.992Z,6.43
2022-12-07T13:06:39.520Z,5.93
2022-12-07T13:09:28.922Z,4.20
2022-12-07T13:12:14.014Z,3.70
2022-12-07T13:14:57.303Z,3.80
2022-12-07T13:17:33.533Z,4.32
2022-12-07T13:20:10.586Z,5.07
2022-12-07T13:22:50.210Z,3.78
2022-12-07T13:25:31.129Z,4.70
2022-12-07T13:28:27.563Z,3.80
2022-12-07T13:31:00.056Z,2.30
2022-12-07T13:33:35.693Z,2.33
2022-12-07T13:36:16.165Z,2.42
2022-12-07T13:38:50.972Z,4.35
2022-12-07T13:41:25.389Z,6.03
2022-12-07T13:44:07.289Z,5.00
2022-12-07T13:46:55.337Z,4.28
2022-12-07T13:49:30.125Z,2.55
2022-12-07T13:52:15.398Z,5.70
2022-12-07T13:55:01.001Z,8.45
2022-12-07T13:57:36.333Z,4.53
2022-12-07T14:00:20.363Z,14.48
2022-12-07T14:03:03.835Z,9.15
2022-12-07T14:05:37.874Z,5.60
2022-12-07T14:08:11.088Z,7.18
2022-12-07T14:10:55.860Z,3.30
2022-12-07T14:13:36.177Z,8.43
2022-12-07T14:16:27.184Z,5.72
2022-12-07T14:19:00.976Z,3.28
2022-12-07T14:21:35.825Z,1.85
2022-12-07T14:24:18.924Z,4.80
2022-12-07T14:26:52.360Z,5.40
2022-12-07T14:29:28.274Z,7.53
2022-12-07T14:32:19.376Z,2.35
2022-12-07T14:34:55.530Z,4.30
2022-12-07T14:37:29.112Z,3.33
2022-12-07T14:40:01.672Z,7.85
2022-12-07T14:42:35.734Z,2.92
2022-12-07T14:45:14.384Z,4.47
2022-12-07T14:53:38.415Z,6.95
2022-12-07T14:56:11.134Z,3.85
2022-12-07T14:58:44.371Z,6.32
2022-12-07T15:01:17.375Z,7.63
2022-12-07T15:03:50.359Z,5.30
2022-12-07T15:06:23.024Z,6.47
2022-12-07T15:08:56.478Z,8.30
2022-12-07T15:11:29.219Z,7.05
2022-12-07T15:14:09.507Z,4.10
2022-12-07T15:17:07.231Z,3.47
2022-12-07T15:19:36.065Z,8.75
2022-12-07T15:22:09.614Z,5.10
2022-12-07T15:24:43.175Z,5.47
2022-12-07T15:27:15.731Z,5.70
2022-12-07T15:29:48.727Z,4.13
2022-12-07T15:32:21.365Z,5.38
2022-12-07T15:34:54.324Z,4.82
2022-12-07T15:37:26.924Z,7.32
2022-12-07T15:40:05.748Z,8.98
2022-12-07T15:42:40.293Z,7.20
2022-12-07T15:45:14.677Z,5.57
2022-12-07T15:48:26.065Z,6.55
2022-12-07T15:50:40.341Z,7.18
2022-12-07T15:53:13.298Z,7.38
2022-12-07T15:55:46.191Z,4.20
2022-12-07T15:58:18.764Z,8.15
2022-12-07T16:00:51.654Z,6.95
2022-12-07T16:03:24.292Z,4.05
2022-12-07T16:05:57.270Z,5.32
2022-12-07T16:08:36.219Z,3.22
2022-12-07T16:11:09.678Z,8.25
2022-12-07T16:13:42.159Z,5.75
2022-12-07T16:16:16.318Z,3.78
2022-12-07T16:18:49.711Z,7.80
2022-12-07T16:21:25.388Z,4.15
2022-12-07T16:23:59.727Z,3.63
2022-12-07T16:26:32.887Z,6.72
2022-12-07T16:29:05.497Z,6.30
2022-12-07T16:31:38.632Z,9.32
2022-12-07T16:34:11.264Z,7.40
2022-12-07T16:39:36.901Z,11.30
2022-12-07T16:42:09.910Z,7.30
2022-12-07T16:44:42.700Z,6.50
2022-12-07T16:47:15.863Z,6.93
2022-12-07T16:49:49.190Z,8.73
2022-12-07T16:52:22.306Z,5.78
2022-12-07T16:54:54.764Z,5.82
2022-12-07T16:57:27.691Z,17.80
2022-12-07T17:00:00.404Z,8.43
2022-12-07T17:02:34.979Z,11.45
2022-12-07T17:05:07.895Z,16.58
2022-12-07T17:07:41.069Z,16.80
2022-12-07T17:10:13.658Z,10.60
2022-12-07T17:12:46.568Z,20.55
2022-12-07T17:15:19.647Z,15.55
2022-12-07T17:17:54.083Z,12.70
2022-12-07T17:20:27.748Z,15.60
2022-12-07T17:23:00.700Z,12.65
2022-12-07T17:25:33.521Z,13.02
2022-12-07T17:28:06.487Z,9.95
2022-12-07T17:53:52.151Z,38.78
2022-12-07T17:56:29.356Z,28.67
2022-12-07T17:59:02.201Z,27.27
2022-12-07T18:01:35.598Z,19.40
2022-12-07T18:04:08.696Z,15.50
2022-12-07T18:06:41.850Z,23.52
2022-12-07T18:09:14.528Z,19.75
2022-12-07T18:11:47.415Z,31.10
2022-12-07T18:14:19.971Z,28.10
2022-12-07T18:16:52.948Z,29.30
2022-12-07T18:19:25.650Z,18.73
2022-12-07T18:21:58.654Z,18.50
2022-12-07T18:24:36.739Z,28.38
2022-12-07T18:27:10.325Z,23.20
2022-12-07T18:29:42.925Z,18.38
2022-12-07T18:32:15.885Z,30.40
2022-12-07T18:34:48.648Z,18.85
2022-12-07T18:37:21.524Z,21.48
2022-12-07T18:39:57.944Z,19.90
2022-12-07T18:42:31.575Z,10.98
2022-12-07T18:45:04.555Z,24.60
2022-12-07T18:47:37.638Z,27.75
2022-12-07T18:50:10.836Z,27.83
2022-12-07T18:52:43.719Z,20.13
2022-12-07T18:55:16.525Z,34.50
2022-12-07T18:57:49.516Z,25.73
2022-12-07T19:00:23.768Z,29.17
2022-12-07T19:02:57.073Z,25.88
2022-12-07T19:05:29.715Z,24.02
2022-12-07T19:08:02.919Z,22.40
2022-12-07T19:10:35.811Z,19.27
2022-12-07T19:13:08.826Z,25.75
2022-12-07T19:15:41.547Z,20.90
2022-12-07T19:18:14.435Z,23.83
2022-12-07T19:20:47.155Z,23.00
2022-12-07T19:23:20.078Z,10.55
2022-12-07T19:25:54.808Z,12.82
2022-12-07T19:28:27.836Z,14.63
2022-12-07T19:31:00.430Z,11.00
2022-12-07T19:33:33.354Z,9.38
2022-12-07T19:36:06.348Z,12.30
2022-12-07T19:38:39.604Z,9.63
2022-12-07T19:41:31.360Z,15.32
2022-12-07T19:44:09.786Z,14.65
2022-12-07T19:46:42.940Z,12.70
2022-12-07T19:49:16.856Z,8.00
2022-12-07T19:51:51.531Z,13.45
2022-12-07T19:54:26.014Z,14.60
2022-12-07T19:56:59.001Z,21.73
2022-12-07T19:59:32.479Z,20.27
2022-12-07T20:02:05.257Z,11.43
2022-12-07T20:04:38.592Z,17.10
2022-12-07T20:07:11.202Z,13.20
2022-12-07T20:09:44.294Z,7.13
2022-12-07T20:12:35.366Z,16.90
2022-12-07T20:15:08.496Z,12.30
2022-12-07T20:17:40.973Z,15.30
2022-12-07T20:20:13.921Z,23.15
2022-12-07T20:22:46.424Z,58.53
2022-12-07T20:25:20.408Z,22.52
2022-12-07T20:27:53.162Z,25.20
2022-12-07T20:30:26.193Z,16.08
2022-12-07T20:32:58.916Z,9.55
2022-12-07T20:35:31.821Z,55.83
2022-12-07T20:38:04.652Z,35.95
2022-12-07T20:40:38.350Z,19.25
2022-12-07T20:43:10.886Z,12.20
2022-12-07T20:45:44.935Z,15.52
2022-12-07T20:48:17.599Z,7.78
2022-12-07T20:50:50.993Z,10.65
2022-12-07T20:53:23.569Z,8.65
2022-12-07T20:55:56.520Z,10.20
2022-12-07T20:58:29.407Z,11.73
2022-12-07T21:01:03.140Z,15.70
2022-12-07T21:03:35.737Z,8.73
2022-12-07T21:06:09.748Z,8.00
2022-12-07T21:08:46.193Z,11.88
2022-12-07T21:11:19.759Z,32.08
2022-12-07T21:13:52.402Z,17.38
2022-12-07T21:16:29.924Z,11.02
2022-12-07T21:19:03.145Z,8.50
2022-12-07T21:21:36.092Z,13.77
2022-12-07T21:24:08.959Z,13.02
2022-12-07T21:26:41.808Z,9.57
2022-12-07T21:29:14.739Z,20.02
2022-12-07T21:31:47.714Z,14.82
2022-12-07T21:34:20.265Z,21.73
2022-12-07T21:36:53.281Z,25.63
2022-12-07T21:39:25.915Z,11.93
2022-12-07T21:41:58.779Z,13.50
2022-12-07T21:44:31.324Z,15.98
2022-12-07T21:47:04.348Z,22.33
2022-12-07T21:49:37.001Z,27.88
2022-12-07T21:52:09.915Z,15.00
2022-12-07T21:54:43.066Z,19.80
2022-12-07T21:57:16.024Z,13.35
2022-12-07T21:59:48.880Z,13.02
2022-12-07T22:02:21.750Z,14.77
2022-12-07T22:04:54.327Z,10.43
2022-12-07T22:07:27.204Z,6.72
2022-12-07T22:09:59.795Z,9.10
2022-12-07T22:12:32.690Z,7.35
2022-12-07T22:15:10.175Z,9.68
2022-12-07T22:17:43.331Z,7.95
2022-12-07T22:20:16.489Z,15.38
2022-12-07T22:22:49.640Z,15.80
2022-12-07T22:25:22.130Z,8.35
2022-12-07T22:27:55.022Z,21.98
2022-12-07T22:30:28.762Z,7.28
2022-12-07T22:33:01.596Z,10.45
2022-12-07T22:35:34.061Z,11.38
2022-12-07T22:38:12.825Z,13.35
2022-12-07T22:40:46.893Z,18.83
2022-12-07T22:43:19.868Z,21.83
2022-12-07T22:45:59.324Z,12.70
2022-12-07T22:48:32.268Z,16.08
2022-12-07T22:51:04.853Z,13.65
2022-12-07T22:53:37.768Z,11.25
2022-12-07T22:56:10.259Z,10.70
2022-12-07T22:58:43.359Z,10.48
2022-12-07T23:01:17.079Z,11.30
2022-12-07T23:03:50.518Z,12.98
2022-12-07T23:06:24.352Z,12.35
2022-12-07T23:08:58.366Z,11.77
2022-12-07T23:11:50.891Z,12.95
2022-12-07T23:14:26.679Z,14.18
2022-12-07T23:16:59.785Z,9.68
2022-12-07T23:19:32.752Z,9.48
2022-12-07T23:22:05.412Z,8.80
2022-12-07T23:24:38.332Z,10.77
2022-12-07T23:27:11.199Z,9.98
2022-12-07T23:29:44.586Z,16.27
2022-12-07T23:32:17.139Z,7.90
2022-12-07T23:34:50.023Z,22.77
2022-12-07T23:37:22.479Z,17.58
2022-12-07T23:39:55.445Z,6.70
2022-12-07T23:42:27.931Z,12.07
2022-12-07T23:45:00.940Z,10.40
2022-12-07T23:47:33.721Z,10.15
2022-12-07T23:50:06.896Z,7.80
2022-12-07T23:52:39.423Z,5.80
2022-12-07T23:55:12.374Z,14.52
2022-12-07T23:57:44.941Z,8.10
